sensor_id;sensor_type;location;lat;lon;timestamp;pressure;altitude;pressure_sealevel;temperature;humidity
40384;BME280;26097;42.366;23.818;2022-12-10T00:01:57;93588.41;;;1.95;100.00
40384;BME280;26097;42.366;23.818;2022-12-10T00:04:57;93592.00;;;2.08;100.00
40384;BME280;26097;42.366;23.818;2022-12-10T00:07:58;93598.97;;;2.06;100.00
40384;BME280;26097;42.366;23.818;2022-12-10T00:10:59;93598.78;;;1.93;100.00
40384;BME280;26097;42.366;23.818;2022-12-10T00:13:59;93595.88;;;1.99;100.00
40384;BME280;26097;42.366;23.818;2022-12-10T00:16:59;93589.28;;;2.11;100.00
40384;BME280;26097;42.366;23.818;2022-12-10T00:20:00;93592.91;;;2.25;100.00
40384;BME280;26097;42.366;23.818;2022-12-10T00:23:00;93589.69;;;2.37;100.00
40384;BME280;26097;42.366;23.818;2022-12-10T00:26:04;93583.34;;;2.27;100.00
40384;BME280;26097;42.366;23.818;2022-12-10T00:29:07;93581.53;;;2.29;100.00
40384;BME280;26097;42.366;23.818;2022-12-10T00:32:07;93575.63;;;2.27;100.00
40384;BME280;26097;42.366;23.818;2022-12-10T00:35:08;93581.38;;;2.32;100.00
40384;BME280;26097;42.366;23.818;2022-12-10T00:38:08;93578.06;;;2.30;100.00
40384;BME280;26097;42.366;23.818;2022-12-10T00:41:10;93576.56;;;2.26;100.00
40384;BME280;26097;42.366;23.818;2022-12-10T00:44:10;93584.34;;;2.24;100.00
40384;BME280;26097;42.366;23.818;2022-12-10T00:47:11;93583.53;;;2.24;100.00
40384;BME280;26097;42.366;23.818;2022-12-10T00:50:11;93584.44;;;2.23;100.00
40384;BME280;26097;42.366;23.818;2022-12-10T00:53:11;93587.81;;;2.23;100.00
40384;BME280;26097;42.366;23.818;2022-12-10T00:56:15;93572.38;;;2.23;100.00
40384;BME280;26097;42.366;23.818;2022-12-10T00:59:16;93582.59;;;2.25;100.00
40384;BME280;26097;42.366;23.818;2022-12-10T01:02:16;93593.47;;;2.30;100.00
40384;BME280;26097;42.366;23.818;2022-12-10T01:05:16;93590.16;;;2.28;100.00
40384;BME280;26097;42.366;23.818;2022-12-10T01:08:17;93591.06;;;2.27;100.00
40384;BME280;26097;42.366;23.818;2022-12-10T01:11:19;93596.63;;;2.35;100.00
40384;BME280;26097;42.366;23.818;2022-12-10T01:14:22;93579.41;;;2.37;100.00
40384;BME280;26097;42.366;23.818;2022-12-10T01:17:23;93582.97;;;2.35;100.00
40384;BME280;26097;42.366;23.818;2022-12-10T01:20:24;93580.38;;;2.35;100.00
40384;BME280;26097;42.366;23.818;2022-12-10T01:23:24;93572.28;;;2.42;100.00
40384;BME280;26097;42.366;23.818;2022-12-10T01:26:28;93553.19;;;2.47;100.00
40384;BME280;26097;42.366;23.818;2022-12-10T01:29:29;93558.16;;;2.50;100.00
40384;BME280;26097;42.366;23.818;2022-12-10T01:32:29;93551.53;;;2.46;100.00
40384;BME280;26097;42.366;23.818;2022-12-10T01:35:30;93549.94;;;2.43;100.00
40384;BME280;26097;42.366;23.818;2022-12-10T01:38:30;93553.19;;;2.47;100.00
40384;BME280;26097;42.366;23.818;2022-12-10T01:41:35;93539.41;;;2.48;100.00
40384;BME280;26097;42.366;23.818;2022-12-10T01:47:42;93557.28;;;2.67;100.00
40384;BME280;26097;42.366;23.818;2022-12-10T01:50:42;93552.53;;;2.75;100.00
40384;BME280;26097;42.366;23.818;2022-12-10T01:53:44;93562.59;;;2.80;100.00
40384;BME280;26097;42.366;23.818;2022-12-10T01:56:50;93550.66;;;2.79;100.00
40384;BME280;26097;42.366;23.818;2022-12-10T01:59:55;93553.78;;;2.84;100.00
40384;BME280;26097;42.366;23.818;2022-12-10T02:03:08;93548.91;;;2.95;100.00
40384;BME280;26097;42.366;23.818;2022-12-10T02:10:07;93555.59;;;2.98;100.00
40384;BME280;26097;42.366;23.818;2022-12-10T02:13:21;93536.59;;;3.00;100.00
40384;BME280;26097;42.366;23.818;2022-12-10T02:16:31;93524.47;;;3.03;100.00
40384;BME280;26097;42.366;23.818;2022-12-10T02:19:39;93535.50;;;3.05;100.00
40384;BME280;26097;42.366;23.818;2022-12-10T02:22:58;93542.13;;;3.09;100.00
40384;BME280;26097;42.366;23.818;2022-12-10T02:26:08;93530.00;;;3.11;100.00
40384;BME280;26097;42.366;23.818;2022-12-10T02:29:20;93532.41;;;3.14;100.00
40384;BME280;26097;42.366;23.818;2022-12-10T02:32:27;93541.63;;;3.18;100.00
40384;BME280;26097;42.366;23.818;2022-12-10T02:35:33;93534.09;;;3.15;100.00
40384;BME280;26097;42.366;23.818;2022-12-10T02:38:37;93540.63;;;3.21;100.00
40384;BME280;26097;42.366;23.818;2022-12-10T02:41:47;93541.94;;;3.28;100.00
40384;BME280;26097;42.366;23.818;2022-12-10T02:44:49;93522.91;;;3.31;100.00
40384;BME280;26097;42.366;23.818;2022-12-10T02:47:50;93506.94;;;3.40;100.00
40384;BME280;26097;42.366;23.818;2022-12-10T02:50:52;93515.97;;;3.47;100.00
40384;BME280;26097;42.366;23.818;2022-12-10T02:53:59;93512.47;;;3.48;100.00
40384;BME280;26097;42.366;23.818;2022-12-10T02:57:01;93517.44;;;3.51;100.00
40384;BME280;26097;42.366;23.818;2022-12-10T03:03:31;93504.41;;;3.54;100.00
40384;BME280;26097;42.366;23.818;2022-12-10T03:06:41;93513.91;;;3.68;100.00
40384;BME280;26097;42.366;23.818;2022-12-10T03:09:58;93521.03;;;3.63;100.00
40384;BME280;26097;42.366;23.818;2022-12-10T03:13:06;93511.22;;;3.70;100.00
40384;BME280;26097;42.366;23.818;2022-12-10T03:16:09;93518.25;;;3.82;100.00
40384;BME280;26097;42.366;23.818;2022-12-10T03:19:13;93516.22;;;3.88;100.00
40384;BME280;26097;42.366;23.818;2022-12-10T03:22:16;93509.22;;;3.90;100.00
40384;BME280;26097;42.366;23.818;2022-12-10T03:25:25;93497.25;;;3.89;100.00
40384;BME280;26097;42.366;23.818;2022-12-10T03:28:26;93485.47;;;4.13;100.00
40384;BME280;26097;42.366;23.818;2022-12-10T03:31:27;93491.88;;;4.50;100.00
40384;BME280;26097;42.366;23.818;2022-12-10T03:34:29;93504.06;;;4.19;100.00
40384;BME280;26097;42.366;23.818;2022-12-10T03:37:30;93492.38;;;4.13;100.00
40384;BME280;26097;42.366;23.818;2022-12-10T03:40:31;93492.44;;;4.11;100.00
40384;BME280;26097;42.366;23.818;2022-12-10T03:43:31;93516.06;;;4.20;100.00
40384;BME280;26097;42.366;23.818;2022-12-10T03:46:32;93511.81;;;4.33;100.00
40384;BME280;26097;42.366;23.818;2022-12-10T03:49:33;93510.91;;;4.34;100.00
40384;BME280;26097;42.366;23.818;2022-12-10T03:52:33;93511.16;;;4.44;100.00
40384;BME280;26097;42.366;23.818;2022-12-10T03:55:33;93490.59;;;4.42;100.00
40384;BME280;26097;42.366;23.818;2022-12-10T03:58:34;93491.53;;;4.41;100.00
40384;BME280;26097;42.366;23.818;2022-12-10T04:01:34;93482.47;;;4.49;100.00
40384;BME280;26097;42.366;23.818;2022-12-10T04:04:35;93472.13;;;4.63;100.00
40384;BME280;26097;42.366;23.818;2022-12-10T04:07:35;93479.13;;;4.61;100.00
40384;BME280;26097;42.366;23.818;2022-12-10T04:10:39;93488.72;;;4.59;100.00
40384;BME280;26097;42.366;23.818;2022-12-10T04:13:39;93484.28;;;4.61;100.00
40384;BME280;26097;42.366;23.818;2022-12-10T04:16:59;93481.13;;;4.70;100.00
40384;BME280;26097;42.366;23.818;2022-12-10T04:19:59;93478.06;;;4.78;100.00
40384;BME280;26097;42.366;23.818;2022-12-10T04:23:00;93468.06;;;4.74;100.00
40384;BME280;26097;42.366;23.818;2022-12-10T04:26:19;93464.72;;;4.71;100.00
40384;BME280;26097;42.366;23.818;2022-12-10T04:29:38;93475.78;;;4.74;100.00
40384;BME280;26097;42.366;23.818;2022-12-10T04:32:39;93480.97;;;4.74;100.00
40384;BME280;26097;42.366;23.818;2022-12-10T04:35:39;93478.06;;;4.78;100.00
40384;BME280;26097;42.366;23.818;2022-12-10T04:38:40;93480.03;;;4.75;100.00
40384;BME280;26097;42.366;23.818;2022-12-10T04:41:42;93486.13;;;4.74;100.00
40384;BME280;26097;42.366;23.818;2022-12-10T04:44:42;93493.88;;;4.74;100.00
40384;BME280;26097;42.366;23.818;2022-12-10T04:47:42;93500.78;;;4.73;100.00
40384;BME280;26097;42.366;23.818;2022-12-10T04:50:43;93510.28;;;4.72;100.00
40384;BME280;26097;42.366;23.818;2022-12-10T04:53:43;93504.34;;;4.70;100.00
40384;BME280;26097;42.366;23.818;2022-12-10T04:56:44;93493.97;;;4.57;100.00
40384;BME280;26097;42.366;23.818;2022-12-10T04:59:44;93491.19;;;4.61;100.00
40384;BME280;26097;42.366;23.818;2022-12-10T05:02:48;93489.25;;;4.64;100.00
40384;BME280;26097;42.366;23.818;2022-12-10T05:05:48;93488.88;;;4.70;100.00
40384;BME280;26097;42.366;23.818;2022-12-10T05:08:49;93488.09;;;4.83;100.00
40384;BME280;26097;42.366;23.818;2022-12-10T05:11:49;93491.63;;;4.82;100.00
40384;BME280;26097;42.366;23.818;2022-12-10T05:14:50;93494.19;;;4.82;100.00
40384;BME280;26097;42.366;23.818;2022-12-10T05:17:50;93484.06;;;4.79;100.00
40384;BME280;26097;42.366;23.818;2022-12-10T05:20:50;93493.47;;;4.80;100.00
40384;BME280;26097;42.366;23.818;2022-12-10T05:23:51;93491.63;;;4.82;100.00
40384;BME280;26097;42.366;23.818;2022-12-10T05:26:52;93477.13;;;4.79;100.00
40384;BME280;26097;42.366;23.818;2022-12-10T05:29:52;93473.75;;;4.79;100.00
40384;BME280;26097;42.366;23.818;2022-12-10T05:32:53;93462.88;;;4.74;100.00
40384;BME280;26097;42.366;23.818;2022-12-10T05:36:03;93463.41;;;4.79;100.00
40384;BME280;26097;42.366;23.818;2022-12-10T05:39:04;93459.19;;;4.78;100.00
40384;BME280;26097;42.366;23.818;2022-12-10T05:42:04;93453.16;;;4.77;100.00
40384;BME280;26097;42.366;23.818;2022-12-10T05:45:05;93461.22;;;4.72;100.00
40384;BME280;26097;42.366;23.818;2022-12-10T05:48:06;93467.13;;;4.75;100.00
40384;BME280;26097;42.366;23.818;2022-12-10T05:51:18;93468.41;;;4.67;100.00
40384;BME280;26097;42.366;23.818;2022-12-10T05:54:19;93480.34;;;4.55;100.00
40384;BME280;26097;42.366;23.818;2022-12-10T05:57:19;93498.22;;;4.58;100.00
40384;BME280;26097;42.366;23.818;2022-12-10T06:00:19;93494.22;;;4.67;100.00
40384;BME280;26097;42.366;23.818;2022-12-10T06:03:21;93491.75;;;4.66;100.00
40384;BME280;26097;42.366;23.818;2022-12-10T06:06:23;93495.69;;;4.71;100.00
40384;BME280;26097;42.366;23.818;2022-12-10T06:09:24;93496.25;;;4.77;100.00
40384;BME280;26097;42.366;23.818;2022-12-10T06:12:25;93491.63;;;4.82;100.00
40384;BME280;26097;42.366;23.818;2022-12-10T06:15:25;93495.47;;;4.89;100.00
40384;BME280;26097;42.366;23.818;2022-12-10T06:18:26;93481.38;;;5.08;100.00
40384;BME280;26097;42.366;23.818;2022-12-10T06:21:26;93470.25;;;5.20;100.00
40384;BME280;26097;42.366;23.818;2022-12-10T06:24:27;93469.06;;;5.39;100.00
40384;BME280;26097;42.366;23.818;2022-12-10T06:27:30;93459.75;;;5.49;100.00
40384;BME280;26097;42.366;23.818;2022-12-10T06:30:31;93465.47;;;5.54;100.00
40384;BME280;26097;42.366;23.818;2022-12-10T06:33:32;93472.16;;;5.57;100.00
40384;BME280;26097;42.366;23.818;2022-12-10T06:36:33;93471.56;;;5.66;100.00
40384;BME280;26097;42.366;23.818;2022-12-10T06:39:33;93472.00;;;5.73;100.00
40384;BME280;26097;42.366;23.818;2022-12-10T06:42:33;93478.63;;;5.64;100.00
40384;BME280;26097;42.366;23.818;2022-12-10T06:45:38;93481.41;;;5.61;100.00
40384;BME280;26097;42.366;23.818;2022-12-10T06:48:39;93492.47;;;5.63;100.00
40384;BME280;26097;42.366;23.818;2022-12-10T06:51:40;93496.59;;;5.66;100.00
40384;BME280;26097;42.366;23.818;2022-12-10T06:54:41;93489.38;;;5.71;100.00
40384;BME280;26097;42.366;23.818;2022-12-10T06:57:42;93490.41;;;5.81;100.00
40384;BME280;26097;42.366;23.818;2022-12-10T07:00:42;93487.53;;;5.86;100.00
40384;BME280;26097;42.366;23.818;2022-12-10T07:03:43;93488.34;;;5.86;100.00
40384;BME280;26097;42.366;23.818;2022-12-10T07:06:44;93482.75;;;5.93;100.00
40384;BME280;26097;42.366;23.818;2022-12-10T07:09:44;93477.25;;;5.97;100.00
40384;BME280;26097;42.366;23.818;2022-12-10T07:12:45;93480.28;;;6.04;100.00
40384;BME280;26097;42.366;23.818;2022-12-10T07:15:45;93483.81;;;6.16;100.00
40384;BME280;26097;42.366;23.818;2022-12-10T07:18:46;93470.78;;;6.18;100.00
40384;BME280;26097;42.366;23.818;2022-12-10T07:21:47;93470.13;;;6.27;100.00
40384;BME280;26097;42.366;23.818;2022-12-10T07:24:48;93472.91;;;6.37;100.00
40384;BME280;26097;42.366;23.818;2022-12-10T07:27:48;93450.53;;;6.49;100.00
40384;BME280;26097;42.366;23.818;2022-12-10T07:30:49;93454.34;;;6.56;100.00
40384;BME280;26097;42.366;23.818;2022-12-10T07:33:50;93452.00;;;6.64;100.00
40384;BME280;26097;42.366;23.818;2022-12-10T07:36:51;93459.25;;;6.72;100.00
40384;BME280;26097;42.366;23.818;2022-12-10T07:39:52;93458.84;;;6.78;100.00
40384;BME280;26097;42.366;23.818;2022-12-10T07:42:52;93465.59;;;6.92;100.00
40384;BME280;26097;42.366;23.818;2022-12-10T07:45:52;93465.88;;;7.00;100.00
40384;BME280;26097;42.366;23.818;2022-12-10T07:48:53;93475.97;;;6.92;100.00
40384;BME280;26097;42.366;23.818;2022-12-10T07:51:53;93482.59;;;6.96;100.00
40384;BME280;26097;42.366;23.818;2022-12-10T07:54:54;93491.34;;;7.07;100.00
40384;BME280;26097;42.366;23.818;2022-12-10T07:57:54;93488.41;;;7.11;100.00
40384;BME280;26097;42.366;23.818;2022-12-10T08:00:54;93484.72;;;7.27;100.00
40384;BME280;26097;42.366;23.818;2022-12-10T08:03:56;93486.31;;;7.41;100.00
40384;BME280;26097;42.366;23.818;2022-12-10T08:06:56;93486.84;;;7.57;100.00
40384;BME280;26097;42.366;23.818;2022-12-10T08:09:57;93481.69;;;7.69;100.00
40384;BME280;26097;42.366;23.818;2022-12-10T08:12:57;93462.97;;;7.88;100.00
40384;BME280;26097;42.366;23.818;2022-12-10T08:16:05;93466.16;;;8.03;100.00
40384;BME280;26097;42.366;23.818;2022-12-10T08:19:06;93451.28;;;8.05;100.00
40384;BME280;26097;42.366;23.818;2022-12-10T08:22:07;93447.06;;;8.27;100.00
40384;BME280;26097;42.366;23.818;2022-12-10T08:25:07;93454.34;;;8.44;100.00
40384;BME280;26097;42.366;23.818;2022-12-10T08:28:08;93430.28;;;8.42;100.00
40384;BME280;26097;42.366;23.818;2022-12-10T08:31:10;93429.81;;;8.49;100.00
40384;BME280;26097;42.366;23.818;2022-12-10T08:34:13;93427.47;;;8.57;100.00
40384;BME280;26097;42.366;23.818;2022-12-10T08:37:14;93429.31;;;8.78;100.00
40384;BME280;26097;42.366;23.818;2022-12-10T08:40:15;93433.25;;;9.05;100.00
40384;BME280;26097;42.366;23.818;2022-12-10T08:43:15;93434.19;;;9.04;100.00
40384;BME280;26097;42.366;23.818;2022-12-10T08:46:16;93445.06;;;9.09;100.00
40384;BME280;26097;42.366;23.818;2022-12-10T08:49:16;93439.38;;;9.04;100.00
40384;BME280;26097;42.366;23.818;2022-12-10T08:52:17;93446.25;;;9.05;100.00
40384;BME280;26097;42.366;23.818;2022-12-10T08:55:17;93452.19;;;8.84;100.00
40384;BME280;26097;42.366;23.818;2022-12-10T08:58:18;93431.13;;;8.98;100.00
40384;BME280;26097;42.366;23.818;2022-12-10T09:01:19;93434.66;;;9.09;100.00
40384;BME280;26097;42.366;23.818;2022-12-10T09:04:19;93428.50;;;9.10;100.00
40384;BME280;26097;42.366;23.818;2022-12-10T09:07:20;93411.25;;;9.09;100.00
40384;BME280;26097;42.366;23.818;2022-12-10T09:10:20;93418.81;;;9.33;100.00
40384;BME280;26097;42.366;23.818;2022-12-10T09:13:22;93415.91;;;9.48;100.00
40384;BME280;26097;42.366;23.818;2022-12-10T09:16:28;93409.75;;;9.70;100.00
40384;BME280;26097;42.366;23.818;2022-12-10T09:19:29;93400.72;;;9.95;100.00
40384;BME280;26097;42.366;23.818;2022-12-10T09:22:29;93393.03;;;10.25;100.00
40384;BME280;26097;42.366;23.818;2022-12-10T09:25:29;93378.59;;;10.52;100.00
40384;BME280;26097;42.366;23.818;2022-12-10T09:28:30;93375.63;;;10.66;100.00
40384;BME280;26097;42.366;23.818;2022-12-10T09:31:30;93370.53;;;10.65;100.00
40384;BME280;26097;42.366;23.818;2022-12-10T09:34:31;93359.97;;;10.66;100.00
40384;BME280;26097;42.366;23.818;2022-12-10T09:37:31;93343.75;;;10.53;100.00
40384;BME280;26097;42.366;23.818;2022-12-10T09:40:40;93338.84;;;10.60;100.00
40384;BME280;26097;42.366;23.818;2022-12-10T09:43:52;93331.31;;;10.66;100.00
40384;BME280;26097;42.366;23.818;2022-12-10T09:47:05;93320.47;;;10.71;100.00
40384;BME280;26097;42.366;23.818;2022-12-10T09:50:27;93314.03;;;10.65;100.00
40384;BME280;26097;42.366;23.818;2022-12-10T09:53:29;93312.50;;;10.53;100.00
40384;BME280;26097;42.366;23.818;2022-12-10T09:56:36;93316.41;;;10.37;100.00
40384;BME280;26097;42.366;23.818;2022-12-10T09:59:42;93310.25;;;10.38;100.00
40384;BME280;26097;42.366;23.818;2022-12-10T10:02:44;93309.72;;;10.35;100.00
40384;BME280;26097;42.366;23.818;2022-12-10T10:05:50;93308.19;;;10.32;100.00
40384;BME280;26097;42.366;23.818;2022-12-10T10:08:53;93309.28;;;10.39;100.00
40384;BME280;26097;42.366;23.818;2022-12-10T10:11:55;93304.00;;;10.51;100.00
40384;BME280;26097;42.366;23.818;2022-12-10T10:14:55;93301.13;;;10.54;100.00
40384;BME280;26097;42.366;23.818;2022-12-10T10:17:58;93293.31;;;10.74;100.00
40384;BME280;26097;42.366;23.818;2022-12-10T10:21:20;93283.16;;;10.90;100.00
40384;BME280;26097;42.366;23.818;2022-12-10T10:24:31;93282.31;;;10.99;100.00
40384;BME280;26097;42.366;23.818;2022-12-10T10:27:33;93276.25;;;11.19;100.00
40384;BME280;26097;42.366;23.818;2022-12-10T10:30:34;93267.16;;;11.33;100.00
40384;BME280;26097;42.366;23.818;2022-12-10T10:33:47;93268.25;;;11.40;100.00
40384;BME280;26097;42.366;23.818;2022-12-10T10:36:59;93250.38;;;11.45;100.00
40384;BME280;26097;42.366;23.818;2022-12-10T10:40:03;93247.81;;;11.63;100.00
40384;BME280;26097;42.366;23.818;2022-12-10T10:43:04;93237.44;;;11.81;100.00
40384;BME280;26097;42.366;23.818;2022-12-10T10:46:12;93238.44;;;11.98;100.00
40384;BME280;26097;42.366;23.818;2022-12-10T10:49:26;93233.50;;;12.05;100.00
40384;BME280;26097;42.366;23.818;2022-12-10T10:52:29;93228.94;;;12.07;100.00
40384;BME280;26097;42.366;23.818;2022-12-10T10:55:31;93237.03;;;12.14;100.00
40384;BME280;26097;42.366;23.818;2022-12-10T10:58:36;93240.75;;;12.11;100.00
40384;BME280;26097;42.366;23.818;2022-12-10T11:01:54;93239.38;;;12.07;100.00
40384;BME280;26097;42.366;23.818;2022-12-10T11:04:55;93238.06;;;11.93;100.00
40384;BME280;26097;42.366;23.818;2022-12-10T11:08:27;93238.88;;;11.94;100.00
40384;BME280;26097;42.366;23.818;2022-12-10T11:11:35;93230.66;;;11.89;100.00
40384;BME280;26097;42.366;23.818;2022-12-10T11:14:42;93226.03;;;11.82;100.00
40384;BME280;26097;42.366;23.818;2022-12-10T11:17:47;93221.28;;;11.68;100.00
40384;BME280;26097;42.366;23.818;2022-12-10T11:24:10;93219.66;;;11.19;100.00
40384;BME280;26097;42.366;23.818;2022-12-10T11:27:38;93208.97;;;11.22;100.00
40384;BME280;26097;42.366;23.818;2022-12-10T11:30:45;93201.84;;;11.24;100.00
40384;BME280;26097;42.366;23.818;2022-12-10T11:50:35;93171.88;;;11.28;100.00
40384;BME280;26097;42.366;23.818;2022-12-10T12:00:44;93173.22;;;11.33;100.00
40384;BME280;26097;42.366;23.818;2022-12-10T12:07:18;93171.25;;;11.45;100.00
40384;BME280;26097;42.366;23.818;2022-12-10T12:14:00;93172.56;;;11.58;100.00
40384;BME280;26097;42.366;23.818;2022-12-10T12:20:28;93163.59;;;11.43;100.00
40384;BME280;26097;42.366;23.818;2022-12-10T12:27:35;93158.06;;;11.46;100.00
40384;BME280;26097;42.366;23.818;2022-12-10T12:30:39;93144.44;;;11.52;100.00
40384;BME280;26097;42.366;23.818;2022-12-10T12:34:05;93131.38;;;11.52;100.00
40384;BME280;26097;42.366;23.818;2022-12-10T12:37:09;93134.97;;;11.51;100.00
40384;BME280;26097;42.366;23.818;2022-12-10T12:46:43;93125.00;;;11.37;100.00
40384;BME280;26097;42.366;23.818;2022-12-10T12:49:44;93131.34;;;11.34;100.00
40384;BME280;26097;42.366;23.818;2022-12-10T12:52:49;93116.56;;;11.25;100.00
40384;BME280;26097;42.366;23.818;2022-12-10T12:56:05;93108.22;;;11.21;100.00
40384;BME280;26097;42.366;23.818;2022-12-10T13:06:22;93134.38;;;11.02;100.00
40384;BME280;26097;42.366;23.818;2022-12-10T13:09:27;93123.16;;;10.91;100.00
40384;BME280;26097;42.366;23.818;2022-12-10T13:12:31;93118.81;;;10.82;100.00
40384;BME280;26097;42.366;23.818;2022-12-10T13:18:36;93119.91;;;10.79;100.00
40384;BME280;26097;42.366;23.818;2022-12-10T13:22:09;93116.63;;;10.77;100.00
40384;BME280;26097;42.366;23.818;2022-12-10T13:25:12;93100.28;;;10.75;100.00
40384;BME280;26097;42.366;23.818;2022-12-10T13:31:44;93102.66;;;10.68;100.00
40384;BME280;26097;42.366;23.818;2022-12-10T13:38:22;93107.03;;;10.58;100.00
40384;BME280;26097;42.366;23.818;2022-12-10T13:41:23;93092.53;;;10.55;100.00
40384;BME280;26097;42.366;23.818;2022-12-10T13:44:49;93094.59;;;10.52;100.00
40384;BME280;26097;42.366;23.818;2022-12-10T13:47:55;93087.34;;;10.46;100.00
40384;BME280;26097;42.366;23.818;2022-12-10T13:51:33;93082.66;;;10.39;100.00
40384;BME280;26097;42.366;23.818;2022-12-10T14:08:35;93068.19;;;9.97;100.00
40384;BME280;26097;42.366;23.818;2022-12-10T14:12:03;93059.44;;;9.89;100.00
40384;BME280;26097;42.366;23.818;2022-12-10T14:15:16;93067.09;;;9.80;100.00
40384;BME280;26097;42.366;23.818;2022-12-10T14:18:18;93065.16;;;9.72;100.00
40384;BME280;26097;42.366;23.818;2022-12-10T14:21:18;93056.44;;;9.64;100.00
40384;BME280;26097;42.366;23.818;2022-12-10T14:24:35;93067.34;;;9.57;100.00
40384;BME280;26097;42.366;23.818;2022-12-10T14:27:40;93059.53;;;9.48;100.00
40384;BME280;26097;42.366;23.818;2022-12-10T14:30:46;93041.31;;;9.38;100.00
40384;BME280;26097;42.366;23.818;2022-12-10T14:33:48;93042.69;;;9.32;100.00
40384;BME280;26097;42.366;23.818;2022-12-10T14:36:52;93037.47;;;9.22;100.00
40384;BME280;26097;42.366;23.818;2022-12-10T14:39:53;93031.44;;;9.12;100.00
40384;BME280;26097;42.366;23.818;2022-12-10T14:43:11;93037.19;;;9.06;100.00
40384;BME280;26097;42.366;23.818;2022-12-10T14:46:17;93041.94;;;9.00;100.00
40384;BME280;26097;42.366;23.818;2022-12-10T14:49:25;93036.31;;;8.95;100.00
40384;BME280;26097;42.366;23.818;2022-12-10T14:52:32;93030.84;;;8.89;100.00
40384;BME280;26097;42.366;23.818;2022-12-10T14:55:35;93027.25;;;8.80;100.00
40384;BME280;26097;42.366;23.818;2022-12-10T14:58:40;93024.22;;;8.75;100.00
40384;BME280;26097;42.366;23.818;2022-12-10T15:01:47;93021.22;;;8.69;100.00
40384;BME280;26097;42.366;23.818;2022-12-10T15:04:50;93020.66;;;8.66;100.00
40384;BME280;26097;42.366;23.818;2022-12-10T15:10:58;93010.16;;;8.46;100.00
40384;BME280;26097;42.366;23.818;2022-12-10T15:14:02;93017.53;;;8.41;100.00
40384;BME280;26097;42.366;23.818;2022-12-10T15:17:03;93023.78;;;8.38;100.00
40384;BME280;26097;42.366;23.818;2022-12-10T15:20:26;93010.63;;;8.30;100.00
40384;BME280;26097;42.366;23.818;2022-12-10T15:26:32;92993.91;;;8.23;100.00
40384;BME280;26097;42.366;23.818;2022-12-10T15:29:34;92996.78;;;8.20;100.00
40384;BME280;26097;42.366;23.818;2022-12-10T15:32:35;93001.28;;;8.18;100.00
40384;BME280;26097;42.366;23.818;2022-12-10T15:35:35;92997.56;;;8.10;100.00
40384;BME280;26097;42.366;23.818;2022-12-10T15:38:37;92993.31;;;8.09;100.00
40384;BME280;26097;42.366;23.818;2022-12-10T15:41:47;92984.59;;;8.10;100.00
40384;BME280;26097;42.366;23.818;2022-12-10T15:44:48;92976.34;;;8.05;100.00
40384;BME280;26097;42.366;23.818;2022-12-10T15:47:49;92981.41;;;8.07;100.00
40384;BME280;26097;42.366;23.818;2022-12-10T15:50:50;92979.13;;;8.13;100.00
40384;BME280;26097;42.366;23.818;2022-12-10T15:53:50;92970.91;;;8.08;100.00
40384;BME280;26097;42.366;23.818;2022-12-10T15:56:51;92966.22;;;8.02;100.00
40384;BME280;26097;42.366;23.818;2022-12-10T15:59:56;92958.59;;;8.00;100.00
40384;BME280;26097;42.366;23.818;2022-12-10T16:03:01;92968.81;;;8.02;100.00
40384;BME280;26097;42.366;23.818;2022-12-10T16:06:06;92954.03;;;7.93;100.00
40384;BME280;26097;42.366;23.818;2022-12-10T16:09:06;92957.84;;;7.89;100.00
40384;BME280;26097;42.366;23.818;2022-12-10T16:12:09;92958.78;;;7.88;100.00
40384;BME280;26097;42.366;23.818;2022-12-10T16:15:17;92955.47;;;7.85;100.00
40384;BME280;26097;42.366;23.818;2022-12-10T16:18:18;92957.16;;;7.86;100.00
40384;BME280;26097;42.366;23.818;2022-12-10T16:21:19;92955.47;;;7.85;100.00
40384;BME280;26097;42.366;23.818;2022-12-10T16:24:19;92952.78;;;7.87;100.00
40384;BME280;26097;42.366;23.818;2022-12-10T16:27:20;92950.28;;;7.85;100.00
40384;BME280;26097;42.366;23.818;2022-12-10T16:30:23;92947.69;;;7.85;100.00
40384;BME280;26097;42.366;23.818;2022-12-10T16:33:25;92944.28;;;7.85;100.00
40384;BME280;26097;42.366;23.818;2022-12-10T16:36:26;92948.66;;;7.84;100.00
40384;BME280;26097;42.366;23.818;2022-12-10T16:39:26;92955.06;;;7.80;100.00
40384;BME280;26097;42.366;23.818;2022-12-10T16:42:27;92953.56;;;7.78;100.00
40384;BME280;26097;42.366;23.818;2022-12-10T16:45:38;92961.56;;;7.75;100.00
40384;BME280;26097;42.366;23.818;2022-12-10T16:48:39;92946.84;;;7.75;100.00
40384;BME280;26097;42.366;23.818;2022-12-10T16:51:39;92945.88;;;7.76;100.00
40384;BME280;26097;42.366;23.818;2022-12-10T16:54:43;92933.03;;;7.75;100.00
40384;BME280;26097;42.366;23.818;2022-12-10T16:57:45;92938.09;;;7.76;100.00
40384;BME280;26097;42.366;23.818;2022-12-10T17:00:48;92922.69;;;7.84;100.00
40384;BME280;26097;42.366;23.818;2022-12-10T17:03:50;92906.91;;;7.88;100.00
40384;BME280;26097;42.366;23.818;2022-12-10T17:06:51;92893.53;;;7.92;100.00
40384;BME280;26097;42.366;23.818;2022-12-10T17:09:51;92890.44;;;7.98;100.00
40384;BME280;26097;42.366;23.818;2022-12-10T17:12:52;92888.91;;;7.96;100.00
40384;BME280;26097;42.366;23.818;2022-12-10T17:15:52;92880.69;;;7.91;100.00
40384;BME280;26097;42.366;23.818;2022-12-10T17:18:53;92869.19;;;7.83;100.00
40384;BME280;26097;42.366;23.818;2022-12-10T17:21:54;92855.81;;;7.88;100.00
40384;BME280;26097;42.366;23.818;2022-12-10T17:24:54;92861.84;;;7.89;100.00
40384;BME280;26097;42.366;23.818;2022-12-10T17:27:54;92862.34;;;7.82;100.00
40384;BME280;26097;42.366;23.818;2022-12-10T17:30:55;92860.03;;;7.79;100.00
40384;BME280;26097;42.366;23.818;2022-12-10T17:33:57;92860.28;;;7.76;100.00